Samsara — 9HA4388 — position and weather

sailwx.info

Track history (hours):
 
Tides and Currents Weather Stations Pressure Air Temp Water Temp Dewpoint Dewpoint Depression Visibility Wind Speed Wind Dir Waves Ship Positions

Samsara

Last reported at 2018-Jun-05 09:08 UTC. Time now 2018-Jun-21 08:44 UTC.
Position N 27°03' W 116°08'.
Warning: this ship's position is 15 days out of date.

Length 274 m; draft 9 m.

Type: Tanker. MMSI: 249820000.

Date/timePositionNaut miles runAvg speedWind from/ knotsBaromVisibWave heightAir tempDewpointWater temp
2018-Jun-05 09:08N 27°03' W 116°08'59 7.2
2018-Jun-05 01:01N 27°60' W 116°23'0 7.4
2018-Jun-05 01:00N 28°00' W 116°23'63 7.4
2018-Jun-04 16:30N 29°01' W 116°38'4 7.5
2018-Jun-04 16:00N 29°05' W 116°39'11 7.5
2018-Jun-04 14:35N 29°16' W 116°41'46 8.0
2018-Jun-04 08:46N 30°00' W 116°54'2 8.2
2018-Jun-04 08:30N 30°03' W 116°54'29 8.1
2018-Jun-04 04:56N 30°31' W 117°01'10 7.9
2018-Jun-04 03:40N 30°41' W 117°04'1 7.8
2018-Jun-04 03:30N 30°42' W 117°04'4 7.8
2018-Jun-04 02:57N 30°46' W 117°05'4 7.7
2018-Jun-04 02:26N 30°50' W 117°06'7 7.7
2018-Jun-04 01:35N 30°56' W 117°08'1 7.8
2018-Jun-04 01:30N 30°57' W 117°08'6 7.7
2018-Jun-04 00:45N 31°03' W 117°10'4 7.6
2018-Jun-04 00:15N 31°06' W 117°11'37 7.8
2018-Jun-03 19:31N 31°42' W 117°20'2 7.5
2018-Jun-03 19:18N 31°44' W 117°21'3 7.7
2018-Jun-03 18:52N 31°47' W 117°21'3 7.5
2018-Jun-03 18:26N 31°50' W 117°22'5 7.4
2018-Jun-03 17:43N 31°55' W 117°23'6 7.5
2018-Jun-03 16:57N 32°01' W 117°25'4 7.5
2018-Jun-03 16:27N 32°05' W 117°26'0 0.9
2018-Jun-03 16:00N 32°04' W 117°27'713.5
2018-Jun-03 15:30N 32°11' W 117°28'713.7
2018-Jun-03 14:59N 32°18' W 117°30'1412.0
2018-Jun-03 13:50N 32°31' W 117°33'310.4
2018-Jun-03 13:30N 32°35' W 117°34'9 6.8
2018-Jun-03 12:13N 32°42' W 117°39'1 6.3
2018-Jun-03 12:00N 32°43' W 117°40'3 6.3
2018-Jun-03 11:30N 32°46' W 117°42'3 6.3
2018-Jun-03 11:00N 32°49' W 117°44'4 6.5
2018-Jun-03 10:21N 32°53' W 117°47'2 6.3
2018-Jun-03 10:00N 32°54' W 117°48'3 6.2
2018-Jun-03 09:30N 32°57' W 117°50'3 5.9
2018-Jun-03 09:00N 32°60' W 117°52'3 5.7
2018-Jun-03 08:27N 33°02' W 117°54'3 6.0
2018-Jun-03 08:00N 33°05' W 117°55'3 6.2
2018-Jun-03 07:30N 33°07' W 117°57'3 5.6
2018-Jun-03 07:00N 33°09' W 117°59'3 6.0
2018-Jun-03 06:30N 33°12' W 118°01'3 5.3
2018-Jun-03 06:00N 33°14' W 118°03'3 5.2
2018-Jun-03 05:30N 33°16' W 118°04'3 5.1
2018-Jun-03 05:00N 33°19' W 118°06'3 6.0
2018-Jun-03 04:30N 33°21' W 118°07'3 5.9
2018-Jun-03 04:00N 33°24' W 118°09'3 5.6
2018-Jun-03 03:29N 33°27' W 118°10'3 5.7
2018-Jun-03 03:00N 33°29' W 118°11'3 6.2
2018-Jun-03 02:30N 33°32' W 118°12'4 7.1
2018-Jun-03 02:00N 33°36' W 118°13'3 7.0
2018-Jun-03 01:30N 33°39' W 118°12'5 9.1
2018-Jun-03 01:00N 33°44' W 118°11'1 1.9
2018-Jun-03 00:30N 33°44' W 118°10'0 0.0
2018-Jun-03 00:00N 33°44' W 118°10'0 0.0
2018-Jun-02 23:30N 33°44' W 118°10'0 0.0
2018-Jun-02 23:00N 33°44' W 118°10'0 0.0
2018-Jun-02 22:30N 33°44' W 118°10'0 0.0
2018-Jun-02 22:00N 33°44' W 118°10'0 0.0
2018-Jun-02 21:27N 33°44' W 118°10'0 0.0
2018-Jun-02 21:00N 33°44' W 118°10'0 0.1
2018-Jun-02 20:30N 33°44' W 118°10'0 0.1
2018-Jun-02 20:00N 33°44' W 118°10'0 0.0
2018-Jun-02 19:30N 33°44' W 118°10'0 0.0
2018-Jun-02 19:00N 33°44' W 118°10'0 0.0
2018-Jun-02 18:30N 33°44' W 118°10'0 0.0
2018-Jun-02 18:00N 33°44' W 118°10'0 0.0
2018-Jun-02 17:30N 33°44' W 118°10'0 0.1
2018-Jun-02 17:00N 33°44' W 118°10'0 0.0
2018-Jun-02 16:30N 33°44' W 118°10'0 0.1
2018-Jun-02 15:57N 33°44' W 118°10'0 0.2
2018-Jun-02 15:30N 33°44' W 118°10'0 0.1
2018-Jun-02 15:00N 33°44' W 118°10'3 5.1
2018-Jun-02 14:30N 33°42' W 118°11'4 7.4
2018-Jun-02 14:00N 33°38' W 118°13'5 9.0
2018-Jun-02 13:30N 33°36' W 118°18'711.5
2018-Jun-02 12:54N 33°38' W 118°25'513.1
2018-Jun-02 12:30N 33°41' W 118°31'612.0
2018-Jun-02 12:00N 33°47' W 118°32'  
2018-May-30 20:04N 33°54' W 118°27'0 0.0
2018-May-30 20:00N 33°54' W 118°27'0 0.0
2018-May-30 19:30N 33°54' W 118°27'0 0.0
2018-May-30 19:00N 33°54' W 118°27'0 0.0
2018-May-30 18:30N 33°54' W 118°27'2 0.1
2018-May-29 18:41N 33°53' W 118°29'9 5.8
2018-May-29 17:07N 33°44' W 118°30'1 6.7
2018-May-29 17:00N 33°43' W 118°30'3 6.3
2018-May-29 16:30N 33°41' W 118°27'4 7.9
2018-May-29 16:00N 33°39' W 118°23'4 7.8
2018-May-29 15:30N 33°38' W 118°18'3 6.7
2018-May-29 15:00N 33°38' W 118°14'4 8.5
2018-May-29 14:30N 33°38' W 118°09'2 4.2
2018-May-29 14:00N 33°39' W 118°07'0 0.1
2018-May-29 13:30N 33°39' W 118°07'0 0.1
2018-May-29 13:00N 33°39' W 118°07'0 0.0
2018-May-29 12:24N 33°39' W 118°07'0 0.0
2018-May-29 12:00N 33°39' W 118°07'0 0.0
2018-May-29 11:30N 33°39' W 118°07'0 0.0
2018-May-29 10:57N 33°39' W 118°07'0 0.1
2018-May-29 10:30N 33°39' W 118°07'0 0.1
2018-May-29 10:00N 33°39' W 118°07'0 0.1
2018-May-29 09:27N 33°39' W 118°07'0 0.1
2018-May-29 08:54N 33°39' W 118°07'0 0.0
2018-May-29 08:27N 33°39' W 118°07'0 0.0
2018-May-29 07:45N 33°39' W 118°07'0 0.0
2018-May-29 07:18N 33°39' W 118°07'0 0.0
2018-May-29 06:42N 33°39' W 118°07'0 0.0
2018-May-29 06:30N 33°39' W 118°07'0 0.0
2018-May-29 05:54N 33°39' W 118°07'0 0.0
2018-May-29 05:21N 33°39' W 118°07'0 0.0
2018-May-29 05:00N 33°39' W 118°07'0 0.0
2018-May-29 04:27N 33°39' W 118°07'0 0.0
2018-May-29 03:51N 33°39' W 118°07'0 0.1
2018-May-29 03:27N 33°39' W 118°07'0 0.0
2018-May-29 03:00N 33°39' W 118°07'0 0.0
2018-May-29 02:30N 33°39' W 118°07'0 0.0
2018-May-29 02:00N 33°39' W 118°07'0 0.0
2018-May-29 01:27N 33°39' W 118°07'0 0.0
2018-May-29 00:56N 33°39' W 118°07'0 0.0
2018-May-29 00:30N 33°39' W 118°07'0 0.1
2018-May-28 23:57N 33°39' W 118°07'0 0.1
2018-May-28 23:29N 33°39' W 118°07'0 0.1
2018-May-28 23:00N 33°39' W 118°07'0 0.0
2018-May-28 22:29N 33°39' W 118°07'0 0.0
2018-May-28 21:51N 33°39' W 118°07'0 0.0
2018-May-28 21:27N 33°39' W 118°07'0 0.0
2018-May-28 21:00N 33°39' W 118°07'0 0.1
2018-May-28 20:30N 33°39' W 118°07'0 0.1
2018-May-28 20:00N 33°39' W 118°07'0 0.0
2018-May-28 19:30N 33°39' W 118°07'0 0.1
2018-May-28 18:59N 33°39' W 118°07'0 0.0
2018-May-28 18:30N 33°39' W 118°07'0 0.0
2018-May-28 17:36N 33°39' W 118°07'0 0.1
2018-May-28 17:29N 33°39' W 118°07'0 0.0
2018-May-28 16:50N 33°39' W 118°07'0 0.1
2018-May-28 16:27N 33°39' W 118°07'0 0.0
2018-May-28 15:57N 33°39' W 118°07'0 0.0
2018-May-28 15:29N 33°39' W 118°07'0 0.2
2018-May-28 14:56N 33°39' W 118°07'0 0.3
2018-May-28 14:07N 33°39' W 118°07'3 2.6
2018-May-28 13:05N 33°37' W 118°09'22 7.0
2018-May-28 10:00N 33°16' W 118°01'5 9.8
2018-May-28 09:30N 33°12' W 117°58'5 9.7
2018-May-28 09:00N 33°07' W 117°56'5 9.6
2018-May-28 08:30N 33°03' W 117°53'5 9.6
2018-May-28 08:00N 32°59' W 117°51'5 9.6
2018-May-28 07:30N 32°54' W 117°48'5 9.6
2018-May-28 07:00N 32°50' W 117°46'5 9.8
2018-May-28 06:30N 32°46' W 117°43'5 9.8
2018-May-28 06:00N 32°41' W 117°40'5 9.6
2018-May-28 05:30N 32°37' W 117°38'5 9.2
2018-May-28 05:00N 32°33' W 117°36'5 9.0
2018-May-28 04:29N 32°28' W 117°35'  
Track history (hours):
 
Tides and Currents Weather Stations Pressure Air Temp Water Temp Dewpoint Dewpoint Depression Visibility Wind Speed Wind Dir Waves Ship Positions

Samsara

Last reported at 2018-Jun-05 09:08 UTC. Time now 2018-Jun-21 08:44 UTC.
Position N 27°03' W 116°08'.
Warning: this ship's position is 15 days out of date.

Length 274 m; draft 9 m.

Type: Tanker. MMSI: 249820000.

Date/timePositionNaut miles runAvg speedWind from/ knotsBaromVisibWave heightAir tempDewpointWater temp
2018-Jun-05 09:08N 27°03' W 116°08'59 7.2
2018-Jun-05 01:01N 27°60' W 116°23'0 7.4
2018-Jun-05 01:00N 28°00' W 116°23'63 7.4
2018-Jun-04 16:30N 29°01' W 116°38'4 7.5
2018-Jun-04 16:00N 29°05' W 116°39'11 7.5
2018-Jun-04 14:35N 29°16' W 116°41'46 8.0
2018-Jun-04 08:46N 30°00' W 116°54'2 8.2
2018-Jun-04 08:30N 30°03' W 116°54'29 8.1
2018-Jun-04 04:56N 30°31' W 117°01'10 7.9
2018-Jun-04 03:40N 30°41' W 117°04'1 7.8
2018-Jun-04 03:30N 30°42' W 117°04'4 7.8
2018-Jun-04 02:57N 30°46' W 117°05'4 7.7
2018-Jun-04 02:26N 30°50' W 117°06'7 7.7
2018-Jun-04 01:35N 30°56' W 117°08'1 7.8
2018-Jun-04 01:30N 30°57' W 117°08'6 7.7
2018-Jun-04 00:45N 31°03' W 117°10'4 7.6
2018-Jun-04 00:15N 31°06' W 117°11'37 7.8
2018-Jun-03 19:31N 31°42' W 117°20'2 7.5
2018-Jun-03 19:18N 31°44' W 117°21'3 7.7
2018-Jun-03 18:52N 31°47' W 117°21'3 7.5
2018-Jun-03 18:26N 31°50' W 117°22'5 7.4
2018-Jun-03 17:43N 31°55' W 117°23'6 7.5
2018-Jun-03 16:57N 32°01' W 117°25'4 7.5
2018-Jun-03 16:27N 32°05' W 117°26'0 0.9
2018-Jun-03 16:00N 32°04' W 117°27'713.5
2018-Jun-03 15:30N 32°11' W 117°28'713.7
2018-Jun-03 14:59N 32°18' W 117°30'1412.0
2018-Jun-03 13:50N 32°31' W 117°33'310.4
2018-Jun-03 13:30N 32°35' W 117°34'9 6.8
2018-Jun-03 12:13N 32°42' W 117°39'1 6.3
2018-Jun-03 12:00N 32°43' W 117°40'3 6.3
2018-Jun-03 11:30N 32°46' W 117°42'3 6.3
2018-Jun-03 11:00N 32°49' W 117°44'4 6.5
2018-Jun-03 10:21N 32°53' W 117°47'2 6.3
2018-Jun-03 10:00N 32°54' W 117°48'3 6.2
2018-Jun-03 09:30N 32°57' W 117°50'3 5.9
2018-Jun-03 09:00N 32°60' W 117°52'3 5.7
2018-Jun-03 08:27N 33°02' W 117°54'3 6.0
2018-Jun-03 08:00N 33°05' W 117°55'3 6.2
2018-Jun-03 07:30N 33°07' W 117°57'3 5.6
2018-Jun-03 07:00N 33°09' W 117°59'3 6.0
2018-Jun-03 06:30N 33°12' W 118°01'3 5.3
2018-Jun-03 06:00N 33°14' W 118°03'3 5.2
2018-Jun-03 05:30N 33°16' W 118°04'3 5.1
2018-Jun-03 05:00N 33°19' W 118°06'3 6.0
2018-Jun-03 04:30N 33°21' W 118°07'3 5.9
2018-Jun-03 04:00N 33°24' W 118°09'3 5.6
2018-Jun-03 03:29N 33°27' W 118°10'3 5.7
2018-Jun-03 03:00N 33°29' W 118°11'3 6.2
2018-Jun-03 02:30N 33°32' W 118°12'4 7.1
2018-Jun-03 02:00N 33°36' W 118°13'3 7.0
2018-Jun-03 01:30N 33°39' W 118°12'5 9.1
2018-Jun-03 01:00N 33°44' W 118°11'1 1.9
2018-Jun-03 00:30N 33°44' W 118°10'0 0.0
2018-Jun-03 00:00N 33°44' W 118°10'0 0.0
2018-Jun-02 23:30N 33°44' W 118°10'0 0.0
2018-Jun-02 23:00N 33°44' W 118°10'0 0.0
2018-Jun-02 22:30N 33°44' W 118°10'0 0.0
2018-Jun-02 22:00N 33°44' W 118°10'0 0.0
2018-Jun-02 21:27N 33°44' W 118°10'0 0.0
2018-Jun-02 21:00N 33°44' W 118°10'0 0.1
2018-Jun-02 20:30N 33°44' W 118°10'0 0.1
2018-Jun-02 20:00N 33°44' W 118°10'0 0.0
2018-Jun-02 19:30N 33°44' W 118°10'0 0.0
2018-Jun-02 19:00N 33°44' W 118°10'0 0.0
2018-Jun-02 18:30N 33°44' W 118°10'0 0.0
2018-Jun-02 18:00N 33°44' W 118°10'0 0.0
2018-Jun-02 17:30N 33°44' W 118°10'0 0.1
2018-Jun-02 17:00N 33°44' W 118°10'0 0.0
2018-Jun-02 16:30N 33°44' W 118°10'0 0.1
2018-Jun-02 15:57N 33°44' W 118°10'0 0.2
2018-Jun-02 15:30N 33°44' W 118°10'0 0.1
2018-Jun-02 15:00N 33°44' W 118°10'3 5.1
2018-Jun-02 14:30N 33°42' W 118°11'4 7.4
2018-Jun-02 14:00N 33°38' W 118°13'5 9.0
2018-Jun-02 13:30N 33°36' W 118°18'711.5
2018-Jun-02 12:54N 33°38' W 118°25'513.1
2018-Jun-02 12:30N 33°41' W 118°31'612.0
2018-Jun-02 12:00N 33°47' W 118°32'  
2018-May-30 20:04N 33°54' W 118°27'0 0.0
2018-May-30 20:00N 33°54' W 118°27'0 0.0
2018-May-30 19:30N 33°54' W 118°27'0 0.0
2018-May-30 19:00N 33°54' W 118°27'0 0.0
2018-May-30 18:30N 33°54' W 118°27'2 0.1
2018-May-29 18:41N 33°53' W 118°29'9 5.8
2018-May-29 17:07N 33°44' W 118°30'1 6.7
2018-May-29 17:00N 33°43' W 118°30'3 6.3
2018-May-29 16:30N 33°41' W 118°27'4 7.9
2018-May-29 16:00N 33°39' W 118°23'4 7.8
2018-May-29 15:30N 33°38' W 118°18'3 6.7
2018-May-29 15:00N 33°38' W 118°14'4 8.5
2018-May-29 14:30N 33°38' W 118°09'2 4.2
2018-May-29 14:00N 33°39' W 118°07'0 0.1
2018-May-29 13:30N 33°39' W 118°07'0 0.1
2018-May-29 13:00N 33°39' W 118°07'0 0.0
2018-May-29 12:24N 33°39' W 118°07'0 0.0
2018-May-29 12:00N 33°39' W 118°07'0 0.0
2018-May-29 11:30N 33°39' W 118°07'0 0.0
2018-May-29 10:57N 33°39' W 118°07'0 0.1
2018-May-29 10:30N 33°39' W 118°07'0 0.1
2018-May-29 10:00N 33°39' W 118°07'0 0.1
2018-May-29 09:27N 33°39' W 118°07'0 0.1
2018-May-29 08:54N 33°39' W 118°07'0 0.0
2018-May-29 08:27N 33°39' W 118°07'0 0.0
2018-May-29 07:45N 33°39' W 118°07'0 0.0
2018-May-29 07:18N 33°39' W 118°07'0 0.0
2018-May-29 06:42N 33°39' W 118°07'0 0.0
2018-May-29 06:30N 33°39' W 118°07'0 0.0
2018-May-29 05:54N 33°39' W 118°07'0 0.0
2018-May-29 05:21N 33°39' W 118°07'0 0.0
2018-May-29 05:00N 33°39' W 118°07'0 0.0
2018-May-29 04:27N 33°39' W 118°07'0 0.0
2018-May-29 03:51N 33°39' W 118°07'0 0.1
2018-May-29 03:27N 33°39' W 118°07'0 0.0
2018-May-29 03:00N 33°39' W 118°07'0 0.0
2018-May-29 02:30N 33°39' W 118°07'0 0.0
2018-May-29 02:00N 33°39' W 118°07'0 0.0
2018-May-29 01:27N 33°39' W 118°07'0 0.0
2018-May-29 00:56N 33°39' W 118°07'0 0.0
2018-May-29 00:30N 33°39' W 118°07'0 0.1
2018-May-28 23:57N 33°39' W 118°07'0 0.1
2018-May-28 23:29N 33°39' W 118°07'0 0.1
2018-May-28 23:00N 33°39' W 118°07'0 0.0
2018-May-28 22:29N 33°39' W 118°07'0 0.0
2018-May-28 21:51N 33°39' W 118°07'0 0.0
2018-May-28 21:27N 33°39' W 118°07'0 0.0
2018-May-28 21:00N 33°39' W 118°07'0 0.1
2018-May-28 20:30N 33°39' W 118°07'0 0.1
2018-May-28 20:00N 33°39' W 118°07'0 0.0
2018-May-28 19:30N 33°39' W 118°07'0 0.1
2018-May-28 18:59N 33°39' W 118°07'0 0.0
2018-May-28 18:30N 33°39' W 118°07'0 0.0
2018-May-28 17:36N 33°39' W 118°07'0 0.1
2018-May-28 17:29N 33°39' W 118°07'0 0.0
2018-May-28 16:50N 33°39' W 118°07'0 0.1
2018-May-28 16:27N 33°39' W 118°07'0 0.0
2018-May-28 15:57N 33°39' W 118°07'0 0.0
2018-May-28 15:29N 33°39' W 118°07'0 0.2
2018-May-28 14:56N 33°39' W 118°07'0 0.3
2018-May-28 14:07N 33°39' W 118°07'3 2.6
2018-May-28 13:05N 33°37' W 118°09'22 7.0
2018-May-28 10:00N 33°16' W 118°01'5 9.8
2018-May-28 09:30N 33°12' W 117°58'5 9.7
2018-May-28 09:00N 33°07' W 117°56'5 9.6
2018-May-28 08:30N 33°03' W 117°53'5 9.6
2018-May-28 08:00N 32°59' W 117°51'5 9.6
2018-May-28 07:30N 32°54' W 117°48'5 9.6
2018-May-28 07:00N 32°50' W 117°46'5 9.8
2018-May-28 06:30N 32°46' W 117°43'5 9.8
2018-May-28 06:00N 32°41' W 117°40'5 9.6
2018-May-28 05:30N 32°37' W 117°38'5 9.2
2018-May-28 05:00N 32°33' W 117°36'5 9.0
2018-May-28 04:29N 32°28' W 117°35'  

Dump ship's entire track history